Time;durP1;ratioP1;P1;durP2;ratioP2;P2;SDS_P1;SDS_P2;PMS_P1;PMS_P2;Temp;Humidity;BMP_temperature;BMP_pressure;BME280_temperature;BME280_humidity;BME280_pressure;Samples;Min_cycle;Max_cycle;Signal;HPM_P1;HPM_P2
2023/07/22 00:00:46;;;;;;;0.00;0.00;;;;;;;20.03;100.00;101384.88;10446153;28;20048;-79
2023/07/22 00:05:47;;;;;;;0.77;0.40;;;;;;;19.53;100.00;101382.47;10429839;28;20126;-79
2023/07/22 00:10:49;;;;;;;0.00;0.00;;;;;;;19.37;100.00;101383.41;10441266;28;20049;-79
2023/07/22 00:15:51;;;;;;;1.63;0.60;;;;;;;19.44;100.00;101382.50;10430773;28;20053;-79
2023/07/22 00:20:53;;;;;;;0.30;0.10;;;;;;;19.49;100.00;101378.13;10430822;28;20041;-79
2023/07/22 00:25:55;;;;;;;0.20;0.10;;;;;;;19.03;100.00;101377.38;10447566;28;20506;-79
2023/07/22 00:30:57;;;;;;;0.38;0.20;;;;;;;19.38;100.00;101372.06;10439370;28;20133;-79
2023/07/22 00:35:59;;;;;;;0.13;0.13;;;;;;;19.30;100.00;101378.19;10447881;28;20118;-79
2023/07/22 00:41:00;;;;;;;0.32;0.32;;;;;;;19.46;100.00;101365.94;10437955;28;20049;-79
2023/07/22 00:46:03;;;;;;;0.55;0.38;;;;;;;19.51;100.00;101368.53;10436497;28;20053;-79
2023/07/22 00:51:05;;;;;;;0.80;0.65;;;;;;;19.23;100.00;101366.03;10430031;28;20132;-79
2023/07/22 00:56:07;;;;;;;0.98;0.47;;;;;;;19.53;100.00;101369.41;10434419;28;20202;-79
2023/07/22 01:01:08;;;;;;;0.40;0.28;;;;;;;19.41;100.00;101362.50;10429519;28;20041;-79
2023/07/22 01:06:10;;;;;;;0.28;0.28;;;;;;;19.60;100.00;101365.91;10445968;28;20052;-79
2023/07/22 01:11:14;;;;;;;1.20;0.47;;;;;;;20.66;100.00;101354.78;10446004;28;20476;-79
2023/07/22 01:16:16;;;;;;;0.00;0.00;;;;;;;19.86;100.00;101351.84;10427394;28;20049;-79
2023/07/22 01:21:19;;;;;;;0.28;0.15;;;;;;;20.45;100.00;101336.63;10446281;28;20488;-79
2023/07/22 01:26:20;;;;;;;0.10;0.10;;;;;;;19.55;100.00;101346.72;10443211;28;20138;-79
2023/07/22 01:31:22;;;;;;;0.55;0.40;;;;;;;19.61;100.00;101343.22;10445281;28;20044;-79
2023/07/22 01:36:23;;;;;;;0.65;0.63;;;;;;;19.74;100.00;101338.81;10445232;28;20048;-79
2023/07/22 01:41:25;;;;;;;0.70;0.25;;;;;;;19.61;100.00;101341.50;10443406;28;20126;-79
2023/07/22 01:46:27;;;;;;;0.43;0.28;;;;;;;19.97;100.00;101339.59;10441596;28;20049;-79
2023/07/22 01:51:30;;;;;;;1.08;0.30;;;;;;;20.07;100.00;101339.50;10444689;28;20045;-79
2023/07/22 01:56:32;;;;;;;0.47;0.40;;;;;;;20.33;100.00;101330.63;10445133;28;20511;-79
2023/07/22 02:01:34;;;;;;;0.35;0.30;;;;;;;20.09;100.00;101330.81;10444901;28;20128;-79
2023/07/22 02:06:36;;;;;;;0.10;0.10;;;;;;;20.01;100.00;101337.81;10429083;28;20056;-79
2023/07/22 02:11:37;;;;;;;0.60;0.28;;;;;;;19.70;100.00;101343.19;10432915;28;20450;-79
2023/07/22 02:16:39;;;;;;;1.75;0.60;;;;;;;19.60;100.00;101334.53;10436331;28;20057;-79
2023/07/22 02:21:41;;;;;;;0.30;0.10;;;;;;;19.42;100.00;101334.59;10452816;28;20045;-79
2023/07/22 02:26:42;;;;;;;0.60;0.60;;;;;;;19.79;100.00;101332.69;10438602;28;20063;-79
2023/07/22 02:31:44;;;;;;;0.52;0.52;;;;;;;19.72;100.00;101332.72;10451851;28;20470;-79
2023/07/22 02:36:46;;;;;;;0.55;0.55;;;;;;;19.76;100.00;101330.09;10435327;28;20057;-79
2023/07/22 02:41:48;;;;;;;1.45;0.47;;;;;;;20.23;100.00;101328.06;10451841;28;20127;-79
2023/07/22 02:46:50;;;;;;;0.10;0.10;;;;;;;20.39;100.00;101327.94;10448855;28;20068;-79
2023/07/22 02:51:51;;;;;;;4.45;0.63;;;;;;;19.97;100.00;101329.13;10435446;28;20041;-79
2023/07/22 02:56:53;;;;;;;0.17;0.17;;;;;;;20.99;100.00;101322.19;10435340;28;20152;-79
2023/07/22 03:01:57;;;;;;;0.52;0.52;;;;;;;20.82;100.00;101319.72;10451086;28;20060;-79
2023/07/22 03:07:00;;;;;;;0.10;0.10;;;;;;;20.11;100.00;101341.25;10434454;28;20140;-79
2023/07/22 03:12:01;;;;;;;0.13;0.13;;;;;;;20.49;100.00;101336.59;10450191;28;20163;-79
2023/07/22 03:17:03;;;;;;;0.05;0.05;;;;;;;20.34;100.00;101327.13;10434232;28;20059;-79
2023/07/22 03:22:05;;;;;;;0.00;0.00;;;;;;;20.29;100.00;101321.94;10432970;28;20049;-79
2023/07/22 03:27:07;;;;;;;0.50;0.40;;;;;;;20.21;100.00;101331.56;10433932;28;20217;-79
2023/07/22 03:32:09;;;;;;;0.00;0.00;;;;;;;20.03;100.00;101332.56;10431773;28;20049;-79
2023/07/22 03:37:10;;;;;;;0.10;0.10;;;;;;;19.63;100.00;101344.97;10449164;28;20092;-79
2023/07/22 03:42:12;;;;;;;0.10;0.10;;;;;;;20.04;100.00;101339.53;10444247;28;20136;-79
2023/07/22 03:47:14;;;;;;;0.30;0.22;;;;;;;19.69;100.00;101337.97;10449668;28;20049;-79
2023/07/22 03:52:18;;;;;;;0.00;0.00;;;;;;;19.51;100.00;101337.19;10433184;28;20103;-79
2023/07/22 03:57:25;;;;;;;0.05;0.00;;;;;;;19.57;100.00;101339.75;10444991;28;20441;-79
2023/07/22 04:02:27;;;;;;;0.15;0.13;;;;;;;19.39;100.00;101340.72;10443317;28;20052;-79
2023/07/22 04:07:28;;;;;;;0.32;0.32;;;;;;;19.09;100.00;101341.69;10431812;28;20137;-79
2023/07/22 04:12:30;;;;;;;0.60;0.47;;;;;;;18.97;100.00;101333.00;10447683;28;20516;-79
2023/07/22 04:17:32;;;;;;;2.15;0.65;;;;;;;18.93;100.00;101338.22;10439295;28;20064;-79
2023/07/22 04:22:34;;;;;;;2.15;1.50;;;;;;;18.95;100.00;101334.72;10436472;28;20041;-79
2023/07/22 04:27:35;;;;;;;1.08;0.65;;;;;;;19.11;100.00;101335.59;10431065;28;20076;-79
2023/07/22 04:32:38;;;;;;;0.25;0.25;;;;;;;19.51;100.00;101334.56;10447322;28;20037;-79
2023/07/22 04:37:40;;;;;;;0.55;0.25;;;;;;;20.05;100.00;101330.81;10430495;28;20570;-79
2023/07/22 04:42:43;;;;;;;2.08;0.52;;;;;;;19.92;100.00;101340.50;10447588;28;20512;-79
2023/07/22 04:47:46;;;;;;;0.10;0.10;;;;;;;19.70;100.00;101340.59;10429266;28;20059;-79
2023/07/22 04:52:48;;;;;;;0.52;0.52;;;;;;;20.08;100.00;101341.25;10430212;28;20124;-79
2023/07/22 04:57:51;;;;;;;2.13;1.10;;;;;;;19.57;100.00;101349.38;10430834;28;20893;-79
2023/07/22 05:02:55;;;;;;;0.00;0.00;;;;;;;19.72;100.00;101348.41;10428296;28;20128;-79
2023/07/22 05:07:57;;;;;;;0.73;0.68;;;;;;;19.59;100.00;101353.69;10428768;28;20049;-79
2023/07/22 05:12:59;;;;;;;0.30;0.25;;;;;;;19.59;100.00;101356.31;10446355;28;20048;-80
2023/07/22 05:18:01;;;;;;;0.30;0.28;;;;;;;20.00;100.00;101350.88;10446130;28;20056;-79
2023/07/22 05:23:02;;;;;;;0.80;0.55;;;;;;;20.28;100.00;101348.97;10447634;28;20488;-79
2023/07/22 05:28:04;;;;;;;0.90;0.60;;;;;;;19.76;100.00;101355.38;10429228;28;20126;-79
2023/07/22 05:33:06;;;;;;;1.20;0.65;;;;;;;20.27;100.00;101358.56;10426759;28;20515;-79
2023/07/22 05:38:07;;;;;;;0.65;0.22;;;;;;;19.92;100.00;101357.03;10445772;28;20049;-79
2023/07/22 05:43:09;;;;;;;1.48;1.05;;;;;;;20.26;100.00;101358.56;10445671;28;20048;-79
2023/07/22 05:48:11;;;;;;;1.95;0.52;;;;;;;20.25;100.00;101356.84;10444444;28;20053;-80
2023/07/22 05:53:12;;;;;;;0.80;0.45;;;;;;;20.28;100.00;101359.44;10444980;28;20047;-79
2023/07/22 05:58:18;;;;;;;2.38;1.05;;;;;;;20.21;100.00;101361.25;10425937;28;20049;-80
2023/07/22 06:03:20;;;;;;;1.80;1.30;;;;;;;20.21;100.00;101358.63;10428878;28;20048;-79
2023/07/22 06:08:22;;;;;;;1.95;1.10;;;;;;;20.67;100.00;101357.38;10442025;28;20044;-80
2023/07/22 06:13:24;;;;;;;0.88;0.80;;;;;;;21.13;100.00;101349.97;10429189;28;20045;-79
2023/07/22 06:18:26;;;;;;;1.15;0.75;;;;;;;21.45;100.00;101341.75;10441093;28;20617;-79
2023/07/22 06:23:27;;;;;;;3.55;1.27;;;;;;;20.86;100.00;101350.25;10443355;28;20381;-79
2023/07/22 06:28:29;;;;;;;6.60;2.50;;;;;;;20.96;100.00;101355.41;10439011;28;20057;-79
2023/07/22 06:33:30;;;;;;;2.17;0.80;;;;;;;21.52;100.00;101348.63;10444619;28;20806;-80
2023/07/22 06:38:32;;;;;;;4.70;1.58;;;;;;;20.90;100.00;101341.47;10428665;28;20135;-80
2023/07/22 06:43:33;;;;;;;1.73;1.25;;;;;;;21.87;100.00;101342.06;10445578;28;20048;-80
2023/07/22 06:48:35;;;;;;;4.13;2.00;;;;;;;21.77;100.00;101337.88;10428723;28;20071;-80
2023/07/22 06:53:37;;;;;;;1.63;0.90;;;;;;;22.05;100.00;101340.09;10427753;28;20315;-79
2023/07/22 06:58:38;;;;;;;3.72;0.80;;;;;;;23.25;100.00;101333.69;10443737;28;20432;-80
2023/07/22 07:03:40;;;;;;;2.35;1.52;;;;;;;22.71;100.00;101339.94;10436514;28;20550;-81
2023/07/22 07:08:41;;;;;;;0.98;0.50;;;;;;;22.81;100.00;101339.75;10450850;28;20407;-80
2023/07/22 07:13:43;;;;;;;2.70;1.42;;;;;;;23.49;100.00;101341.97;10422688;28;20053;-79
2023/07/22 07:18:44;;;;;;;0.45;0.45;;;;;;;24.61;100.00;101333.19;10409409;28;20048;-80
2023/07/22 07:23:47;;;;;;;1.52;0.98;;;;;;;23.94;100.00;101333.94;10442734;28;20052;-80
2023/07/22 07:28:51;;;;;;;2.35;1.05;;;;;;;24.76;100.00;101323.22;10450391;28;20048;-80
2023/07/22 07:33:53;;;;;;;0.47;0.45;;;;;;;25.08;100.00;101329.34;10448751;28;20036;-79
2023/07/22 07:38:54;;;;;;;1.00;0.60;;;;;;;25.18;100.00;101320.28;10447287;28;20123;-80
2023/07/22 07:43:56;;;;;;;1.33;1.00;;;;;;;25.09;100.00;101316.16;10428416;28;20045;-79
2023/07/22 07:49:03;;;;;;;1.35;0.77;;;;;;;24.78;100.00;101313.47;10439939;28;20496;-80
2023/07/22 07:54:06;;;;;;;1.80;0.65;;;;;;;24.39;100.00;101311.81;10429141;28;20041;-80
2023/07/22 07:59:09;;;;;;;1.30;1.00;;;;;;;25.60;100.00;101306.75;10430727;28;20045;-80
2023/07/22 08:04:11;;;;;;;0.80;0.60;;;;;;;25.11;100.00;101313.47;10440231;28;20044;-82
2023/07/22 08:09:18;;;;;;;2.00;0.98;;;;;;;25.62;100.00;101314.59;10440896;28;20045;-79
2023/07/22 08:14:20;;;;;;;3.95;1.45;;;;;;;26.13;100.00;101323.59;10438364;28;20132;-81
2023/07/22 08:19:21;;;;;;;4.88;1.27;;;;;;;25.85;100.00;101320.94;10445009;28;20061;-81
2023/07/22 08:24:23;;;;;;;0.70;0.40;;;;;;;25.26;100.00;101320.03;10444979;28;20041;-80
2023/07/22 08:29:25;;;;;;;0.70;0.65;;;;;;;24.92;100.00;101326.28;10445882;28;20474;-81
2023/07/22 08:34:27;;;;;;;0.17;0.17;;;;;;;25.35;100.00;101323.28;10430534;28;20055;-80
2023/07/22 08:39:28;;;;;;;0.68;0.52;;;;;;;24.84;100.00;101331.75;10447281;28;20051;-79
2023/07/22 08:44:35;;;;;;;0.30;0.22;;;;;;;25.41;100.00;101318.78;10445021;28;20137;-82
2023/07/22 08:49:38;;;;;;;0.32;0.28;;;;;;;24.80;100.00;101322.22;10425288;28;20237;-80
2023/07/22 08:54:41;;;;;;;0.45;0.45;;;;;;;25.13;100.00;101316.91;10433088;28;20049;-81
2023/07/22 08:59:43;;;;;;;1.27;0.85;;;;;;;25.56;100.00;101318.31;10439259;28;20075;-80
2023/07/22 09:04:45;;;;;;;0.10;0.10;;;;;;;25.38;100.00;101313.56;10428392;28;20037;-82
2023/07/22 09:09:47;;;;;;;0.57;0.32;;;;;;;25.35;100.00;101315.34;10428301;28;20041;-80
2023/07/22 09:14:49;;;;;;;0.10;0.10;;;;;;;24.79;100.00;101323.13;10446204;28;20111;-81
2023/07/22 09:19:53;;;;;;;0.68;0.60;;;;;;;24.50;100.00;101319.44;10440235;28;20110;-81
2023/07/22 09:25:16;;;;;;;0.75;0.47;;;;;;;25.18;100.00;101321.13;10428162;28;20040;-81
2023/07/22 09:30:30;;;;;;;1.55;0.30;;;;;;;25.13;100.00;101323.03;10441527;28;20045;-82
2023/07/22 09:35:45;;;;;;;0.75;0.65;;;;;;;24.83;100.00;101323.00;10436267;28;20901;-81
2023/07/22 09:40:46;;;;;;;1.20;0.77;;;;;;;25.95;100.00;101317.97;10436265;28;20061;-80
2023/07/22 09:45:49;;;;;;;0.95;0.35;;;;;;;26.01;100.00;101323.97;10430970;28;20052;-81
2023/07/22 09:50:58;;;;;;;2.10;1.27;;;;;;;25.24;100.00;101306.91;10435668;28;20040;-83
2023/07/22 09:56:04;;;;;;;0.10;0.10;;;;;;;25.10;100.00;101306.44;10441386;28;20045;-82
2023/07/22 10:01:07;;;;;;;0.20;0.20;;;;;;;25.93;100.00;101303.09;10446920;28;20120;-82
2023/07/22 10:06:10;;;;;;;1.00;0.52;;;;;;;25.08;100.00;101303.00;10406623;28;20510;-80
2023/07/22 10:11:14;;;;;;;2.03;0.70;;;;;;;25.02;100.00;101310.16;10417085;28;20400;-80
2023/07/22 10:16:16;;;;;;;0.95;0.38;;;;;;;24.81;100.00;101310.78;10421774;28;20405;-82
2023/07/22 10:21:18;;;;;;;0.82;0.57;;;;;;;25.68;100.00;101303.88;10430848;28;20107;-81
2023/07/22 10:26:20;;;;;;;0.65;0.40;;;;;;;26.09;100.00;101308.78;10434070;28;20052;-81
2023/07/22 10:31:42;;;;;;;0.50;0.40;;;;;;;26.40;100.00;101292.75;10428976;28;20048;-81
2023/07/22 10:36:47;;;;;;;1.48;0.45;;;;;;;25.08;100.00;101295.09;10439889;28;20575;-81
2023/07/22 10:41:49;;;;;;;2.08;0.40;;;;;;;25.88;100.00;101307.66;10445500;28;20365;-81
2023/07/22 10:46:58;;;;;;;0.08;0.03;;;;;;;25.82;100.00;101311.34;10432159;28;20048;-82
2023/07/22 10:52:01;;;;;;;0.10;0.10;;;;;;;25.44;100.00;101306.38;10445643;28;20640;-82
2023/07/22 10:57:22;;;;;;;0.20;0.20;;;;;;;25.96;100.00;101300.38;10435965;28;20033;-81
2023/07/22 11:02:25;;;;;;;0.32;0.22;;;;;;;26.08;100.00;101297.34;10444820;28;20051;-80
2023/07/22 11:07:43;;;;;;;0.45;0.38;;;;;;;26.31;100.00;101297.50;10434958;28;20052;-81
2023/07/22 11:12:45;;;;;;;2.38;0.38;;;;;;;25.55;100.00;101284.94;10435046;28;20112;-82
2023/07/22 11:17:48;;;;;;;1.05;0.75;;;;;;;26.21;100.00;101286.41;10424344;28;20041;-81
2023/07/22 11:22:50;;;;;;;0.30;0.28;;;;;;;26.16;100.00;101283.03;10427896;28;20038;-81
2023/07/22 11:27:53;;;;;;;0.43;0.15;;;;;;;25.41;100.00;101274.78;10435760;28;20124;-83
2023/07/22 11:32:58;;;;;;;0.65;0.47;;;;;;;25.45;100.00;101265.91;10432774;28;20380;-82
2023/07/22 11:38:03;;;;;;;0.10;0.10;;;;;;;26.36;100.00;101248.00;10436332;28;20055;-81
2023/07/22 11:43:05;;;;;;;0.45;0.45;;;;;;;26.44;100.00;101241.53;10446833;28;20488;-82
2023/07/22 11:48:12;;;;;;;1.85;0.30;;;;;;;26.49;100.00;101249.31;10437805;28;20098;-81
2023/07/22 11:53:14;;;;;;;0.45;0.28;;;;;;;26.11;100.00;101246.22;10437348;28;20132;-83
2023/07/22 11:58:27;;;;;;;0.68;0.68;;;;;;;25.94;100.00;101237.06;10434088;28;20091;-82
2023/07/22 12:03:33;;;;;;;0.82;0.52;;;;;;;26.00;100.00;101229.84;10460936;28;20079;-82
2023/07/22 12:08:38;;;;;;;0.90;0.55;;;;;;;26.95;100.00;101224.78;10437940;28;20045;-82
2023/07/22 12:13:40;;;;;;;0.17;0.17;;;;;;;27.55;100.00;101219.84;10429193;28;20538;-81
2023/07/22 12:18:46;;;;;;;0.35;0.35;;;;;;;26.99;100.00;101221.97;10432466;28;20044;-81
2023/07/22 12:23:47;;;;;;;1.13;0.50;;;;;;;26.50;100.00;101224.63;10436143;28;20040;-81
2023/07/22 12:28:49;;;;;;;0.10;0.10;;;;;;;26.46;100.00;101217.72;10438838;28;20145;-81
2023/07/22 12:33:51;;;;;;;1.25;0.73;;;;;;;26.61;100.00;101208.38;10435313;28;20416;-80
2023/07/22 12:38:53;;;;;;;0.32;0.22;;;;;;;27.12;100.00;101211.78;10438108;28;20064;-82
2023/07/22 12:43:55;;;;;;;0.00;0.00;;;;;;;27.06;100.00;101206.75;10448827;28;20076;-82
2023/07/22 12:48:57;;;;;;;0.00;0.00;;;;;;;25.94;100.00;101205.41;10430998;28;20400;-80
2023/07/22 12:53:58;;;;;;;0.20;0.20;;;;;;;27.35;100.00;101207.38;10446796;28;20409;-82
2023/07/22 12:59:00;;;;;;;0.20;0.05;;;;;;;27.48;100.00;101213.94;10426791;28;20069;-83
2023/07/22 13:04:02;;;;;;;1.55;0.57;;;;;;;27.36;99.17;101203.81;10445080;28;20036;-79
2023/07/22 13:09:04;;;;;;;0.20;0.05;;;;;;;27.59;100.00;101204.72;10447114;28;20130;-80
2023/07/22 13:14:06;;;;;;;0.20;0.10;;;;;;;27.32;100.00;101196.91;10443263;28;20091;-82
2023/07/22 13:19:09;;;;;;;0.00;0.00;;;;;;;25.70;100.00;101200.94;10442534;28;20037;-82
2023/07/22 13:24:10;;;;;;;0.82;0.40;;;;;;;26.26;100.00;101184.09;10438736;28;20044;-82
2023/07/22 13:29:12;;;;;;;0.17;0.17;;;;;;;27.38;100.00;101194.91;10432627;28;20380;-82
2023/07/22 13:34:15;;;;;;;0.00;0.00;;;;;;;26.54;100.00;101191.91;10427962;28;20068;-82
2023/07/22 13:39:16;;;;;;;0.17;0.17;;;;;;;26.47;98.49;101198.31;10440308;28;20072;-80
2023/07/22 13:44:19;;;;;;;0.08;0.05;;;;;;;26.65;95.21;101201.19;10441924;28;20045;-82
2023/07/22 13:49:21;;;;;;;0.00;0.00;;;;;;;26.28;96.02;101198.97;10424057;28;20496;-82
2023/07/22 13:54:23;;;;;;;0.73;0.25;;;;;;;26.40;100.00;101197.66;10425711;28;20061;-82
2023/07/22 13:59:24;;;;;;;0.47;0.32;;;;;;;25.98;100.00;101207.00;10418671;28;20419;-81
2023/07/22 14:04:26;;;;;;;0.00;0.00;;;;;;;26.72;100.00;101192.13;10424705;28;20040;-82
2023/07/22 14:09:28;;;;;;;1.17;1.08;;;;;;;26.71;100.00;101193.91;10428824;28;20049;-82
2023/07/22 14:14:29;;;;;;;0.00;0.00;;;;;;;26.52;100.00;101185.81;10446421;28;20377;-81
2023/07/22 14:19:31;;;;;;;0.17;0.15;;;;;;;27.31;100.00;101185.47;10430047;28;20103;-80
2023/07/22 14:24:34;;;;;;;0.00;0.00;;;;;;;26.99;100.00;101181.47;10420381;28;20080;-80
2023/07/22 14:29:38;;;;;;;0.03;0.03;;;;;;;27.66;100.00;101180.56;10439064;28;20051;-80
2023/07/22 14:34:40;;;;;;;0.10;0.05;;;;;;;27.68;100.00;101168.13;10419052;28;20602;-82
2023/07/22 14:39:42;;;;;;;0.10;0.10;;;;;;;27.43;100.00;101173.56;10405515;28;20137;-81
2023/07/22 14:44:44;;;;;;;0.77;0.30;;;;;;;27.26;100.00;101162.78;10426684;28;20067;-82
2023/07/22 14:49:46;;;;;;;0.00;0.00;;;;;;;26.88;100.00;101172.16;10427400;28;20127;-82
2023/07/22 14:54:47;;;;;;;0.20;0.17;;;;;;;27.18;100.00;101174.53;10408536;28;20510;-82
2023/07/22 14:59:49;;;;;;;0.20;0.20;;;;;;;26.76;100.00;101173.47;10428752;28;20068;-82
2023/07/22 15:04:51;;;;;;;0.20;0.20;;;;;;;27.40;100.00;101168.38;10418010;28;20134;-81
2023/07/22 15:09:53;;;;;;;0.10;0.10;;;;;;;26.85;100.00;101166.97;10438532;28;20052;-82
2023/07/22 15:14:55;;;;;;;0.08;0.08;;;;;;;27.78;100.00;101163.31;10442448;28;20400;-82
2023/07/22 15:19:56;;;;;;;0.08;0.08;;;;;;;26.90;100.00;101170.31;10448072;28;20515;-80
2023/07/22 15:24:58;;;;;;;0.20;0.00;;;;;;;27.43;100.00;101170.94;10433390;28;20400;-82
2023/07/22 15:30:00;;;;;;;1.30;0.40;;;;;;;27.26;100.00;101166.25;10450471;28;20041;-82
2023/07/22 15:35:02;;;;;;;0.00;0.00;;;;;;;27.73;100.00;101157.34;10441476;28;20472;-81
2023/07/22 15:40:04;;;;;;;0.60;0.30;;;;;;;27.02;100.00;101149.59;10433785;28;20067;-81
2023/07/22 15:45:08;;;;;;;0.20;0.20;;;;;;;26.89;100.00;101152.72;10445408;28;20526;-81
2023/07/22 15:50:10;;;;;;;0.10;0.10;;;;;;;26.81;100.00;101149.53;10449284;28;20119;-82
2023/07/22 15:55:12;;;;;;;0.10;0.10;;;;;;;27.01;100.00;101143.47;10447231;28;20144;-81
2023/07/22 16:00:14;;;;;;;0.65;0.10;;;;;;;26.59;100.00;101155.59;10436427;28;20045;-81
2023/07/22 16:05:15;;;;;;;0.40;0.40;;;;;;;26.91;100.00;101156.19;10447712;28;20554;-81
2023/07/22 16:10:24;;;;;;;0.05;0.05;;;;;;;26.23;100.00;101157.78;10430661;28;20095;-82
2023/07/22 16:15:26;;;;;;;0.40;0.28;;;;;;;25.69;100.00;101159.63;10447923;28;20049;-82
2023/07/22 16:20:31;;;;;;;0.10;0.10;;;;;;;25.30;100.00;101161.69;10443874;28;20056;-81
2023/07/22 16:25:33;;;;;;;0.20;0.20;;;;;;;25.57;100.00;101168.81;10446121;28;20041;-81
2023/07/22 16:30:34;;;;;;;0.10;0.10;;;;;;;25.85;100.00;101167.88;10428763;28;20427;-81
2023/07/22 16:35:36;;;;;;;0.43;0.30;;;;;;;25.71;100.00;101165.72;10442041;28;20045;-80
2023/07/22 16:40:38;;;;;;;0.20;0.00;;;;;;;25.01;100.00;101184.56;10444974;28;20044;-81
2023/07/22 16:45:40;;;;;;;0.05;0.05;;;;;;;24.92;100.00;101179.56;10444375;28;20134;-82
2023/07/22 16:50:42;;;;;;;0.15;0.15;;;;;;;25.57;100.00;101177.59;10439990;28;20809;-81
2023/07/22 16:55:44;;;;;;;0.00;0.00;;;;;;;25.77;100.00;101165.50;10441455;28;20483;-81
2023/07/22 17:00:49;;;;;;;0.00;0.00;;;;;;;26.30;100.00;101151.38;10439829;28;20442;-82
2023/07/22 17:05:51;;;;;;;0.00;0.00;;;;;;;26.34;100.00;101150.34;10446558;28;20488;-82
2023/07/22 17:10:53;;;;;;;0.28;0.00;;;;;;;26.21;100.00;101149.94;10443555;28;20044;-81
2023/07/22 17:15:54;;;;;;;0.00;0.00;;;;;;;26.42;100.00;101143.00;10446016;28;20037;-82
2023/07/22 17:20:56;;;;;;;0.00;0.00;;;;;;;26.34;100.00;101133.63;10425398;28;20064;-82
2023/07/22 17:25:58;;;;;;;0.00;0.00;;;;;;;26.01;100.00;101136.56;10438897;28;20051;-82
2023/07/22 17:31:00;;;;;;;0.00;0.00;;;;;;;26.02;100.00;101133.00;10423695;28;20379;-82
2023/07/22 17:36:02;;;;;;;0.00;0.00;;;;;;;25.42;100.00;101149.06;10437076;28;20128;-82
2023/07/22 17:41:04;;;;;;;0.00;0.00;;;;;;;25.91;100.00;101131.59;10426340;28;20538;-82
2023/07/22 17:46:06;;;;;;;0.00;0.00;;;;;;;25.22;100.00;101132.06;10439791;28;20045;-82
2023/07/22 17:51:08;;;;;;;0.00;0.00;;;;;;;25.10;100.00;101133.31;10445982;28;20190;-82
2023/07/22 17:56:12;;;;;;;0.00;0.00;;;;;;;25.47;100.00;101133.97;10428478;28;20048;-81
2023/07/22 18:01:14;;;;;;;0.00;0.00;;;;;;;25.19;100.00;101133.03;10425317;28;20049;-82
2023/07/22 18:06:16;;;;;;;0.17;0.08;;;;;;;24.63;100.00;101131.19;10434226;28;20045;-81
2023/07/22 18:11:17;;;;;;;0.17;0.00;;;;;;;25.01;100.00;101126.56;10441572;28;20087;-81
2023/07/22 18:16:20;;;;;;;0.13;0.13;;;;;;;25.13;100.00;101121.84;10420488;28;20052;-81
2023/07/22 18:21:22;;;;;;;0.10;0.10;;;;;;;24.05;100.00;101110.03;10431035;28;20049;-81
2023/07/22 18:26:24;;;;;;;0.20;0.10;;;;;;;24.47;100.00;101106.19;10429087;28;20051;-81
2023/07/22 18:31:25;;;;;;;0.03;0.03;;;;;;;24.57;100.00;101110.31;10432499;28;20042;-81
2023/07/22 18:36:28;;;;;;;0.38;0.38;;;;;;;24.35;100.00;101108.31;10414039;28;20400;-81
2023/07/22 18:41:30;;;;;;;0.20;0.20;;;;;;;24.35;100.00;101105.66;10426115;28;20073;-81
2023/07/22 18:46:32;;;;;;;0.55;0.35;;;;;;;24.20;100.00;101106.09;10427892;28;20037;-81
2023/07/22 18:51:34;;;;;;;0.63;0.30;;;;;;;23.57;100.00;101113.84;10436047;28;20059;-81
2023/07/22 18:56:36;;;;;;;0.32;0.30;;;;;;;23.75;100.00;101113.38;10443667;28;20049;-81
2023/07/22 19:01:38;;;;;;;0.20;0.20;;;;;;;23.77;100.00;101116.84;10449691;28;20573;-81
2023/07/22 19:06:39;;;;;;;0.30;0.28;;;;;;;23.47;100.00;101122.88;10438870;28;20033;-81
2023/07/22 19:11:41;;;;;;;0.40;0.20;;;;;;;23.75;100.00;101123.91;10432009;28;20049;-81
2023/07/22 19:16:55;;;;;;;0.55;0.10;;;;;;;23.75;100.00;101133.59;10442293;28;20054;-81
2023/07/22 19:21:57;;;;;;;0.30;0.13;;;;;;;23.40;100.00;101128.28;10446626;28;20488;-82
2023/07/22 19:27:00;;;;;;;0.55;0.30;;;;;;;23.50;100.00;101141.19;10440036;28;20138;-80
2023/07/22 19:32:03;;;;;;;0.10;0.10;;;;;;;23.07;100.00;101151.78;10462799;28;20136;-80
2023/07/22 19:37:06;;;;;;;0.10;0.10;;;;;;;23.02;100.00;101155.41;10443320;28;20045;-80
2023/07/22 19:42:08;;;;;;;0.00;0.00;;;;;;;23.37;100.00;101157.28;10447512;28;20459;-80
2023/07/22 19:47:10;;;;;;;1.10;0.52;;;;;;;23.42;100.00;101152.75;10448547;28;20098;-80
2023/07/22 19:52:12;;;;;;;0.13;0.10;;;;;;;23.29;100.00;101153.97;10432149;28;20045;-80
2023/07/22 19:57:14;;;;;;;0.10;0.10;;;;;;;23.47;100.00;101155.28;10448495;28;20411;-80
2023/07/22 20:02:16;;;;;;;0.00;0.00;;;;;;;23.19;100.00;101153.31;10448499;28;20408;-80
2023/07/22 20:07:18;;;;;;;0.00;0.00;;;;;;;23.58;100.00;101155.91;10447488;28;20804;-80
2023/07/22 20:12:19;;;;;;;0.00;0.00;;;;;;;23.55;100.00;101158.59;10427689;28;20095;-80
2023/07/22 20:17:22;;;;;;;0.43;0.20;;;;;;;22.56;100.00;101166.00;10445577;28;20045;-80
2023/07/22 20:22:24;;;;;;;0.10;0.10;;;;;;;22.58;100.00;101158.09;10426224;28;20048;-79
2023/07/22 20:27:25;;;;;;;0.30;0.15;;;;;;;22.69;100.00;101152.63;10446594;28;20044;-81
2023/07/22 20:32:27;;;;;;;0.17;0.10;;;;;;;22.07;100.00;101149.41;10447257;28;20484;-80
2023/07/22 20:37:31;;;;;;;2.55;0.65;;;;;;;22.53;100.00;101149.44;10446773;28;20047;-80
2023/07/22 20:42:32;;;;;;;0.75;0.05;;;;;;;22.81;100.00;101145.34;10435526;28;20056;-80
2023/07/22 20:47:34;;;;;;;0.00;0.00;;;;;;;22.54;100.00;101153.78;10448059;28;20051;-81
2023/07/22 20:52:36;;;;;;;1.13;0.15;;;;;;;21.79;100.00;101146.41;10446722;28;20114;-81
2023/07/22 20:57:38;;;;;;;0.03;0.03;;;;;;;21.76;100.00;101146.44;10434336;28;20523;-80
2023/07/22 21:02:40;;;;;;;0.65;0.30;;;;;;;21.78;100.00;101136.78;10426796;28;20033;-80
2023/07/22 21:07:41;;;;;;;1.10;0.45;;;;;;;22.01;100.00;101124.16;10424426;28;20052;-80
2023/07/22 21:12:46;;;;;;;0.00;0.00;;;;;;;22.03;100.00;101130.22;10418880;28;20057;-79
2023/07/22 21:17:47;;;;;;;0.43;0.38;;;;;;;22.05;100.00;101126.69;10424487;28;20127;-79
2023/07/22 21:22:49;;;;;;;1.17;0.20;;;;;;;22.87;100.00;101131.19;10449783;28;20047;-80
2023/07/22 21:27:51;;;;;;;0.00;0.00;;;;;;;22.39;100.00;101126.94;10442422;28;20052;-79
2023/07/22 21:32:52;;;;;;;0.15;0.05;;;;;;;23.10;100.00;101117.56;10434986;28;20045;-79
2023/07/22 21:37:54;;;;;;;0.00;0.00;;;;;;;22.91;100.00;101113.63;10418051;28;20057;-79
2023/07/22 21:42:56;;;;;;;0.00;0.00;;;;;;;23.23;100.00;101101.53;10446587;28;20048;-79
2023/07/22 21:47:57;;;;;;;0.63;0.22;;;;;;;22.78;100.00;101098.13;10448539;28;20040;-78
2023/07/22 21:52:59;;;;;;;0.00;0.00;;;;;;;22.38;100.00;101096.31;10419165;28;20045;-79
2023/07/22 21:58:01;;;;;;;0.90;0.20;;;;;;;22.55;100.00;101089.88;10440558;28;20443;-79
2023/07/22 22:03:03;;;;;;;0.80;0.10;;;;;;;22.35;100.00;101076.25;10440334;28;20435;-79
2023/07/22 22:08:05;;;;;;;1.08;0.75;;;;;;;22.02;100.00;101075.16;10419019;28;20408;-79
2023/07/22 22:13:07;;;;;;;0.20;0.10;;;;;;;22.25;100.00;101079.97;10424261;28;20530;-79
2023/07/22 22:18:08;;;;;;;0.00;0.00;;;;;;;22.59;100.00;101083.69;10433741;28;20045;-79
2023/07/22 22:23:12;;;;;;;0.00;0.00;;;;;;;22.88;100.00;101082.19;10426025;28;20809;-79
2023/07/22 22:28:14;;;;;;;0.00;0.00;;;;;;;22.87;100.00;101080.44;10439778;28;20060;-79
2023/07/22 22:33:16;;;;;;;0.10;0.10;;;;;;;22.81;100.00;101078.81;10458608;28;20539;-79
2023/07/22 22:38:17;;;;;;;0.15;0.15;;;;;;;22.53;100.00;101081.16;10439630;28;20048;-79
2023/07/22 22:43:19;;;;;;;0.17;0.10;;;;;;;22.27;100.00;101085.19;10437177;28;20037;-79
2023/07/22 22:48:21;;;;;;;0.30;0.13;;;;;;;21.86;100.00;101075.44;10454888;28;20049;-79
2023/07/22 22:53:23;;;;;;;0.70;0.32;;;;;;;22.04;100.00;101070.75;10446021;28;20040;-79